• Join FlightAware (Why Join?)
  • Login
  • US Flag 
08:47AM EST


 

Airport Tracker/Info


-or-


 

Live Flight TrackerFlight Track Log ✈ N334ST ✈ 16-Mar-2012 ✈ KOGD - KPIH

Flight Track Log - Related Links

Times and Time Zones

All times are in EDT time to prevent confusion due to time zone crossing. See the N334ST flight status page for this flight to view local times or setup timezone preferences in your user account.

Time Position Orientation Groundspeed Altitude Reporting Facility
EDT Latitude Longitude Course Direction KTS MPH feet Rate Location/Type
06:48PM 41.3569 -112.0419 343° North 188 216 7,700  Level Salt Lake Center
06:49PM 41.3906 -112.0553 346° North 188 216 8,400 960 Climbing Salt Lake Center
06:50PM 41.4433 -112.0733 345° North 192 221 9,500 1,140 Climbing Salt Lake Center
06:51PM 41.4950 -112.0914 344° North 189 217 10,800 1,260 Climbing Salt Lake Center
06:52PM 41.5531 -112.1131 345° North 186 214 12,100 1,200 Climbing Salt Lake Center
06:53PM 41.6039 -112.1311 345° North 186 214 13,400 900 Climbing Salt Lake Center
06:54PM 41.6567 -112.1497 345° North 192 221 14,000 240 Climbing Salt Lake Center
06:55PM 41.7183 -112.1711 346° North 224 258 14,000  Level Salt Lake Center
06:56PM 41.7797 -112.1922 344° North 226 260 14,000  Level Salt Lake Center
06:57PM 41.8408 -112.2153 345° North 225 259 14,000  Level Salt Lake Center
06:58PM 41.9033 -112.2375 346° North 228 262 14,000  Level Salt Lake Center
06:59PM 41.9667 -112.2586 346° North 230 265 14,000 -360 Level Salt Lake Center
07:00PM 42.0308 -112.2797 346° North 232 267 13,300 -540 Descending Salt Lake Center
07:01PM 42.0953 -112.3019 347° North 235 270 13,000 -180 Descending Salt Lake Center
07:02PM 42.1714 -112.3264 345° North 237 273 13,000 -180 Level Salt Lake Center
07:03PM 42.2361 -112.3494 345° North 238 274 12,700 -480 Descending Salt Lake Center
07:04PM 42.3014 -112.3739 345° North 239 275 12,100 -360 Descending Salt Lake Center
07:05PM 42.3656 -112.3975 346° North 238 274 12,000 -60 Descending Salt Lake Center
07:06PM 42.4317 -112.4192 345° North 234 269 12,000  Level Salt Lake Center
07:07PM 42.4908 -112.4406 344° North 232 267 12,000  Level Salt Lake Center
07:08PM 42.5589 -112.4675 337° Northwest 229 264 12,000 -300 Level Salt Lake Center
07:09PM 42.6136 -112.4994 335° Northwest 225 259 11,500 -540 Descending Salt Lake Center
07:10PM 42.6692 -112.5339 337° Northwest 224 258 11,000 -540 Descending Salt Lake Center
07:11PM 42.7344 -112.5722 338° Northwest 226 260 10,400 -540 Descending Salt Lake Center
07:12PM 42.7886 -112.6028 337° Northwest 224 258 10,000 -240 Descending Salt Lake Center
07:13PM 42.8503 -112.6381 26° Northeast 221 254 10,000  Level Salt Lake Center
07:14PM 42.8972 -112.6064 47° Northeast 222 255 10,000 -600 Level Salt Lake Center
07:15PM 42.9444 -112.5378 43° Northeast 223 257 8,800 -960 Descending Salt Lake Center
07:16PM 42.9833 -112.4883 282° West 217 250 8,100 -1,560 Descending Salt Lake Center
07:17PM 42.9883 -112.5200 190° South 165 190 5,700 -1,500 Descending Salt Lake Center
07:18PM 42.9500 -112.5292 224° Southwest 138 159 5,100 -480 Descending Salt Lake Center
07:19PM 42.9256 -112.5614 224° Southwest 124 143 4,800 -300 Descending Salt Lake Center